Terminal Aerodrome Forecast
Issued by NWS Charleston, WV

Home | Current Version | Previous Version | Text Only | Print | Product List | Glossary On
Versions: 1 2 3 4 5 6 7 8 9 10 11 12 13 14 15 16 17 18 19 20 21 22 23 24 25 26 27 28
000
FTUS41 KRLX 031120
TAFCRW
TAF
KCRW 031120Z 0312/0412 00000KT 4SM BR SCT001 OVC035
     FM031300 12004KT 6SM SHRA BR BKN015
     FM031500 13004KT 4SM SHRA VCTS BKN015CB
     FM031700 11003KT 6SM BR VCTS BKN015CB
     FM032100 24004KT 3SM TSRA OVC020CB
     FM032300 24005KT 5SM SHRA VCTS OVC020CB
     FM040300 25005KT 5SM BR BKN015
     FM040800 24005KT 4SM BR BKN010=

USA.gov is the U.S. government's official web portal to all federal, state and local government web resources and services.